createdAt,value
2019-02-04T00:00:05.975Z,0
2019-02-04T00:01:05.955Z,0
2019-02-04T00:02:05.694Z,0
2019-02-04T00:03:05.930Z,0
2019-02-04T00:04:05.962Z,0
2019-02-04T00:05:05.885Z,0
2019-02-04T00:06:06.292Z,0
2019-02-04T00:07:06.095Z,0
2019-02-04T00:08:05.848Z,0
2019-02-04T00:09:05.815Z,0
2019-02-04T00:10:05.821Z,0
2019-02-04T00:11:06.531Z,0
2019-02-04T00:12:05.759Z,0
2019-02-04T00:13:05.882Z,0
2019-02-04T00:14:06.150Z,0
2019-02-04T00:15:05.710Z,0
2019-02-04T00:16:05.693Z,0
2019-02-04T00:17:05.674Z,0
2019-02-04T00:18:05.657Z,0
2019-02-04T00:19:05.645Z,0
2019-02-04T00:20:05.622Z,0
2019-02-04T00:21:05.633Z,0
2019-02-04T00:22:06.152Z,0
2019-02-04T00:23:05.578Z,0
2019-02-04T00:24:05.552Z,0
2019-02-04T00:25:05.562Z,0
2019-02-04T00:26:05.540Z,0
2019-02-04T00:27:05.504Z,0
2019-02-04T00:28:05.488Z,0
2019-02-04T00:29:05.467Z,0
2019-02-04T00:30:06.128Z,0
2019-02-04T00:31:07.639Z,0
2019-02-04T00:32:05.422Z,0
2019-02-04T00:33:05.393Z,0
2019-02-04T00:34:05.468Z,0
2019-02-04T00:35:05.391Z,0
2019-02-04T00:36:05.340Z,0
2019-02-04T00:37:05.339Z,0
2019-02-04T00:38:05.846Z,0
2019-02-04T00:39:07.395Z,0
2019-02-04T00:40:05.274Z,0
2019-02-04T00:41:05.260Z,0
2019-02-04T00:42:05.251Z,0
2019-02-04T00:43:05.213Z,0
2019-02-04T00:44:05.211Z,0
2019-02-04T00:45:05.264Z,0
2019-02-04T00:46:05.875Z,0
2019-02-04T00:47:05.146Z,0
2019-02-04T00:48:05.135Z,0
2019-02-04T00:49:05.111Z,0
2019-02-04T00:50:05.090Z,0
2019-02-04T00:51:04.831Z,0
2019-02-04T00:52:05.053Z,0
2019-02-04T00:53:05.266Z,0
2019-02-04T00:54:05.359Z,0
2019-02-04T00:55:05.036Z,0
2019-02-04T00:56:04.997Z,0
2019-02-04T00:57:04.966Z,0
2019-02-04T00:58:04.959Z,0
2019-02-04T00:59:04.926Z,0
2019-02-04T01:00:05.058Z,0
2019-02-04T01:01:05.437Z,0
2019-02-04T01:02:04.887Z,0
2019-02-04T01:03:04.634Z,0
2019-02-04T01:04:04.855Z,0
2019-02-04T01:05:05.031Z,0
2019-02-04T01:06:04.804Z,0
2019-02-04T01:07:04.815Z,0
2019-02-04T01:08:04.556Z,0
2019-02-04T01:09:05.309Z,0
2019-02-04T01:10:04.740Z,0
2019-02-04T01:11:04.718Z,0
2019-02-04T01:12:04.750Z,0
2019-02-04T01:13:04.762Z,0
2019-02-04T01:14:04.663Z,0
2019-02-04T01:15:04.651Z,0
2019-02-04T01:16:04.646Z,0
2019-02-04T01:17:10.823Z,0
2019-02-04T01:18:04.654Z,0
2019-02-04T01:19:04.584Z,0
2019-02-04T01:20:04.586Z,0
2019-02-04T01:21:04.542Z,0
2019-02-04T01:22:04.518Z,0
2019-02-04T01:23:04.509Z,0
2019-02-04T01:24:04.484Z,0
2019-02-04T01:25:05.308Z,0
2019-02-04T01:26:04.466Z,0
2019-02-04T01:27:04.437Z,0
2019-02-04T01:28:04.411Z,0
2019-02-04T01:29:04.393Z,0
2019-02-04T01:30:04.379Z,0
2019-02-04T01:31:04.363Z,0
2019-02-04T01:32:04.354Z,0
2019-02-04T01:33:05.160Z,0
2019-02-04T01:34:04.317Z,0
2019-02-04T01:35:04.404Z,0
2019-02-04T01:36:04.303Z,0
2019-02-04T01:37:04.245Z,0
2019-02-04T01:38:04.242Z,0
2019-02-04T01:39:04.219Z,0
2019-02-04T01:40:04.245Z,0
2019-02-04T01:41:05.067Z,0
2019-02-04T01:42:04.160Z,0
2019-02-04T01:43:04.153Z,0
2019-02-04T01:44:04.136Z,0
2019-02-04T01:45:04.118Z,0
2019-02-04T01:46:04.085Z,0
2019-02-04T01:47:14.106Z,0
2019-02-04T01:48:04.048Z,0
2019-02-04T01:49:04.638Z,0
2019-02-04T01:50:03.820Z,0
2019-02-04T01:51:03.994Z,0
2019-02-04T01:52:03.984Z,0
2019-02-04T01:53:03.962Z,0
2019-02-04T01:54:03.954Z,0
2019-02-04T01:55:03.926Z,0
2019-02-04T01:56:03.901Z,0
2019-02-04T01:57:04.446Z,0
2019-02-04T01:58:03.957Z,0
2019-02-04T01:59:03.865Z,0
2019-02-04T02:00:03.843Z,0
2019-02-04T02:01:03.815Z,0
2019-02-04T02:02:03.789Z,0
2019-02-04T02:03:03.785Z,0
2019-02-04T02:04:03.891Z,0
2019-02-04T02:05:04.491Z,0
2019-02-04T02:06:03.723Z,0
2019-02-04T02:07:03.823Z,0
2019-02-04T02:08:03.816Z,0
2019-02-04T02:09:03.675Z,0
2019-02-04T02:10:03.680Z,0
2019-02-04T02:11:03.638Z,0
2019-02-04T02:12:03.964Z,0
2019-02-04T02:13:03.987Z,0
2019-02-04T02:14:03.584Z,0
2019-02-04T02:15:03.562Z,0
2019-02-04T02:16:03.543Z,0
2019-02-04T02:17:03.527Z,0
2019-02-04T02:18:03.617Z,0
2019-02-04T02:19:03.501Z,0
2019-02-04T02:20:03.647Z,0
2019-02-04T02:21:03.809Z,0
2019-02-04T02:22:03.439Z,0
2019-02-04T02:23:03.420Z,0
2019-02-04T02:24:03.396Z,0
2019-02-04T02:25:03.383Z,0
2019-02-04T02:26:03.369Z,0
2019-02-04T02:27:03.361Z,0
2019-02-04T02:28:03.522Z,0
2019-02-04T02:29:03.913Z,0
2019-02-04T02:30:03.293Z,0
2019-02-04T02:31:03.308Z,0
2019-02-04T02:32:03.058Z,0
2019-02-04T02:33:03.241Z,0
2019-02-04T02:34:03.217Z,0
2019-02-04T02:35:03.213Z,0
2019-02-04T02:36:03.615Z,0
2019-02-04T02:37:03.168Z,0
2019-02-04T02:38:03.170Z,0
2019-02-04T02:39:03.138Z,0
2019-02-04T02:40:03.120Z,0
2019-02-04T02:41:03.108Z,0
2019-02-04T02:42:03.080Z,0
2019-02-04T02:43:03.088Z,0
2019-02-04T02:44:03.767Z,0
2019-02-04T02:45:03.045Z,0
2019-02-04T02:46:03.005Z,0
2019-02-04T02:47:02.984Z,0
2019-02-04T02:48:02.968Z,0
2019-02-04T02:49:02.954Z,0
2019-02-04T02:50:02.960Z,0
2019-02-04T02:51:02.930Z,0
2019-02-04T02:52:03.546Z,0
2019-02-04T02:53:02.902Z,0
2019-02-04T02:54:02.860Z,0
2019-02-04T02:55:02.850Z,0
2019-02-04T02:56:02.820Z,0
2019-02-04T02:57:02.892Z,0
2019-02-04T02:58:02.877Z,0
2019-02-04T02:59:02.988Z,0
2019-02-04T03:00:03.086Z,0
2019-02-04T03:01:02.759Z,0
2019-02-04T03:02:02.717Z,0
2019-02-04T03:03:02.703Z,0
2019-02-04T03:04:02.684Z,0
2019-02-04T03:05:02.695Z,0
2019-02-04T03:06:02.645Z,0
2019-02-04T03:07:02.889Z,0
2019-02-04T03:08:02.972Z,0
2019-02-04T03:09:02.592Z,0
2019-02-04T03:10:02.713Z,0
2019-02-04T03:11:02.542Z,0
2019-02-04T03:12:02.547Z,0
2019-02-04T03:13:02.541Z,4
2019-02-04T03:14:02.510Z,4
2019-02-04T03:15:03.001Z,4
2019-02-04T03:16:02.455Z,4
2019-02-04T03:17:02.206Z,4
2019-02-04T03:18:02.460Z,4
2019-02-04T03:19:02.410Z,0
2019-02-04T03:20:02.386Z,0
2019-02-04T03:21:02.369Z,0
2019-02-04T03:22:02.348Z,0
2019-02-04T03:23:02.849Z,0
2019-02-04T03:24:06.020Z,0
2019-02-04T03:25:02.046Z,0
2019-02-04T03:26:02.289Z,0
2019-02-04T03:27:02.264Z,0
2019-02-04T03:28:02.236Z,0
2019-02-04T03:29:02.240Z,0
2019-02-04T03:30:02.210Z,0
2019-02-04T03:31:02.829Z,0
2019-02-04T03:32:02.226Z,0
2019-02-04T03:33:02.222Z,0
2019-02-04T03:34:02.129Z,0
2019-02-04T03:35:02.113Z,0
2019-02-04T03:36:02.108Z,0
2019-02-04T03:37:02.070Z,0
2019-02-04T03:38:01.825Z,0
2019-02-04T03:39:02.813Z,0
2019-02-04T03:40:02.019Z,0
2019-02-04T03:41:02.008Z,0
2019-02-04T03:42:01.978Z,0
2019-02-04T03:43:02.000Z,0
2019-02-04T03:44:04.431Z,0
2019-02-04T03:45:01.932Z,0
2019-02-04T03:46:01.914Z,0
2019-02-04T03:47:02.733Z,0
2019-02-04T03:48:14.393Z,0
2019-02-04T03:49:01.862Z,0
2019-02-04T03:50:01.923Z,0
2019-02-04T03:51:01.829Z,0
2019-02-04T03:52:01.806Z,0
2019-02-04T03:53:01.783Z,0
2019-02-04T03:54:01.778Z,0
2019-02-04T03:55:03.491Z,0
2019-02-04T03:56:01.726Z,0
2019-02-04T03:57:01.721Z,0
2019-02-04T03:58:01.726Z,0
2019-02-04T03:59:01.665Z,0
2019-02-04T04:00:04.259Z,0
2019-02-04T04:01:01.750Z,0
2019-02-04T04:02:01.625Z,0
2019-02-04T04:03:02.331Z,0
2019-02-04T04:04:01.584Z,0
2019-02-04T04:05:01.573Z,0
2019-02-04T04:06:01.551Z,0
2019-02-04T04:07:01.615Z,0
2019-02-04T04:08:01.628Z,0
2019-02-04T04:09:01.495Z,0
2019-02-04T04:10:01.472Z,0
2019-02-04T04:11:01.908Z,0
2019-02-04T04:12:01.439Z,0
2019-02-04T04:13:01.440Z,0
2019-02-04T04:14:01.405Z,0
2019-02-04T04:15:01.390Z,0
2019-02-04T04:16:01.368Z,0
2019-02-04T04:17:01.357Z,0
2019-02-04T04:18:01.334Z,0
2019-02-04T04:19:01.855Z,0
2019-02-04T04:20:01.306Z,0
2019-02-04T04:21:01.367Z,0
2019-02-04T04:22:01.260Z,0
2019-02-04T04:23:01.259Z,0
2019-02-04T04:24:01.225Z,0
2019-02-04T04:25:01.512Z,0
2019-02-04T04:26:01.456Z,0
2019-02-04T04:27:01.549Z,0
2019-02-04T04:28:01.162Z,0
2019-02-04T04:29:01.169Z,0
2019-02-04T04:30:01.134Z,0
2019-02-04T04:31:01.115Z,0
2019-02-04T04:32:01.209Z,0
2019-02-04T04:33:01.071Z,0
2019-02-04T04:34:01.338Z,0
2019-02-04T04:35:01.400Z,0
2019-02-04T04:36:01.016Z,0
2019-02-04T04:37:01.010Z,0
2019-02-04T04:38:01.019Z,0
2019-02-04T04:39:00.975Z,0
2019-02-04T04:40:00.956Z,0
2019-02-04T04:41:01.037Z,0
2019-02-04T04:42:01.487Z,0
2019-02-04T04:43:00.901Z,0
2019-02-04T04:44:00.886Z,0
2019-02-04T04:45:00.861Z,0
2019-02-04T04:46:00.860Z,0
2019-02-04T04:47:00.925Z,0
2019-02-04T04:48:00.829Z,0
2019-02-04T04:49:02.870Z,0
2019-02-04T04:50:01.447Z,0
2019-02-04T04:51:00.784Z,0
2019-02-04T04:52:00.745Z,0
2019-02-04T04:53:00.750Z,0
2019-02-04T04:54:00.734Z,0
2019-02-04T04:55:00.720Z,0
2019-02-04T04:56:00.727Z,0
2019-02-04T04:57:00.432Z,0
2019-02-04T04:58:01.325Z,0
2019-02-04T04:59:00.629Z,0
2019-02-04T05:00:00.626Z,0
2019-02-04T05:01:00.614Z,0
2019-02-04T05:02:00.587Z,0
2019-02-04T05:03:00.585Z,0
2019-02-04T05:04:00.553Z,0
2019-02-04T05:05:00.551Z,0
2019-02-04T05:06:01.183Z,0
2019-02-04T05:07:03.097Z,0
2019-02-04T05:08:00.487Z,0
2019-02-04T05:09:00.468Z,0
2019-02-04T05:10:00.464Z,0
2019-02-04T05:11:00.433Z,0
2019-02-04T05:12:00.409Z,0
2019-02-04T05:13:00.695Z,0
2019-02-04T05:14:00.895Z,0
2019-02-04T05:15:00.361Z,0
2019-02-04T05:16:00.348Z,0
2019-02-04T05:17:00.338Z,0
2019-02-04T05:18:00.343Z,0
2019-02-04T05:19:00.307Z,0
2019-02-04T05:20:00.298Z,0
2019-02-04T05:21:00.542Z,0
2019-02-04T05:22:00.568Z,0
2019-02-04T05:22:59.999Z,0
2019-02-04T05:24:00.316Z,0
2019-02-04T05:25:00.218Z,0
2019-02-04T05:26:00.190Z,0
2019-02-04T05:27:00.172Z,0
2019-02-04T05:28:00.192Z,0
2019-02-04T05:29:00.201Z,0
2019-02-04T05:30:00.842Z,0
2019-02-04T05:31:00.107Z,0
2019-02-04T05:32:00.086Z,0
2019-02-04T05:33:00.083Z,0
2019-02-04T05:34:00.063Z,0
2019-02-04T05:35:02.352Z,0
2019-02-04T05:36:00.023Z,0
2019-02-04T05:37:00.469Z,0
2019-02-04T05:38:00.005Z,0
2019-02-04T05:38:59.981Z,0
2019-02-04T05:39:59.967Z,0
2019-02-04T05:40:59.952Z,0
2019-02-04T05:41:59.926Z,0
2019-02-04T05:42:59.938Z,0
2019-02-04T05:43:59.913Z,0
2019-02-04T05:45:00.441Z,0
2019-02-04T05:45:59.860Z,0
2019-02-04T05:46:59.843Z,0
2019-02-04T05:47:59.944Z,0
2019-02-04T05:48:59.803Z,0
2019-02-04T05:49:59.806Z,0
2019-02-04T05:50:59.786Z,0
2019-02-04T05:52:02.294Z,0
2019-02-04T05:53:00.373Z,0
2019-02-04T05:53:59.740Z,0
2019-02-04T05:54:59.715Z,0
2019-02-04T05:55:59.746Z,0
2019-02-04T05:56:59.675Z,0
2019-02-04T05:57:59.680Z,0
2019-02-04T05:58:59.657Z,0
2019-02-04T05:59:59.642Z,0
2019-02-04T06:01:00.054Z,0
2019-02-04T06:01:59.600Z,0
2019-02-04T06:02:59.605Z,0
2019-02-04T06:03:59.577Z,0
2019-02-04T06:04:59.574Z,0
2019-02-04T06:05:59.548Z,0
2019-02-04T06:06:59.276Z,0
2019-02-04T06:07:59.502Z,0
2019-02-04T06:09:00.181Z,4
2019-02-04T06:09:59.469Z,4
2019-02-04T06:10:59.465Z,0
2019-02-04T06:11:59.444Z,4
2019-02-04T06:13:00.839Z,4
2019-02-04T06:13:59.409Z,8
2019-02-04T06:14:59.395Z,4
2019-02-04T06:15:59.576Z,8
2019-02-04T06:16:59.716Z,12
2019-02-04T06:17:59.452Z,8
2019-02-04T06:19:07.899Z,12
2019-02-04T06:19:59.321Z,16
2019-02-04T06:20:59.299Z,20
2019-02-04T06:21:59.279Z,24
2019-02-04T06:22:59.280Z,28
2019-02-04T06:23:59.471Z,28
2019-02-04T06:24:59.530Z,36
2019-02-04T06:25:59.243Z,40
2019-02-04T06:26:59.205Z,44
2019-02-04T06:27:59.191Z,52
2019-02-04T06:28:59.167Z,64
2019-02-04T06:29:59.146Z,76
2019-02-04T06:30:59.134Z,84
2019-02-04T06:31:59.557Z,100
2019-02-04T06:32:59.099Z,112
2019-02-04T06:33:59.085Z,128
2019-02-04T06:34:59.081Z,140
2019-02-04T06:35:59.051Z,164
2019-02-04T06:36:59.037Z,172
2019-02-04T06:37:59.019Z,200
2019-02-04T06:38:59.002Z,212
2019-02-04T06:39:59.493Z,232
2019-02-04T06:40:58.973Z,256
2019-02-04T06:41:58.951Z,288
2019-02-04T06:42:58.939Z,312
2019-02-04T06:43:58.911Z,348
2019-02-04T06:44:58.898Z,380
2019-02-04T06:45:58.897Z,412
2019-02-04T06:46:58.869Z,444
2019-02-04T06:47:59.734Z,484
2019-02-04T06:48:58.961Z,524
2019-02-04T06:49:58.843Z,568
2019-02-04T06:50:58.810Z,608
2019-02-04T06:51:58.784Z,640
2019-02-04T06:52:58.766Z,680
2019-02-04T06:53:58.746Z,728
2019-02-04T06:54:58.488Z,764
2019-02-04T06:55:59.093Z,804
2019-02-04T06:56:58.708Z,860
2019-02-04T06:57:58.691Z,876
2019-02-04T06:58:58.663Z,892
2019-02-04T06:59:58.642Z,920
2019-02-04T07:00:58.634Z,984
2019-02-04T07:02:00.264Z,1036
2019-02-04T07:02:58.837Z,1108
2019-02-04T07:03:58.986Z,1184
2019-02-04T07:04:58.556Z,1244
2019-02-04T07:05:58.541Z,1280
2019-02-04T07:06:58.533Z,1352
2019-02-04T07:07:58.506Z,1472
2019-02-04T07:08:58.494Z,1500
2019-02-04T07:09:58.490Z,1612
2019-02-04T07:10:59.053Z,1720
2019-02-04T07:11:58.256Z,1820
2019-02-04T07:12:58.427Z,2028
2019-02-04T07:13:58.411Z,2304
2019-02-04T07:14:58.379Z,2576
2019-02-04T07:15:58.371Z,2904
2019-02-04T07:16:58.350Z,3144
2019-02-04T07:18:04.115Z,3324
2019-02-04T07:18:58.902Z,3292
2019-02-04T07:19:58.295Z,3248
2019-02-04T07:20:58.286Z,3232
2019-02-04T07:21:58.270Z,3176
2019-02-04T07:22:58.274Z,3148
2019-02-04T07:23:58.229Z,3144
2019-02-04T07:24:58.215Z,2944
2019-02-04T07:25:58.389Z,2828
2019-02-04T07:26:58.751Z,2912
2019-02-04T07:27:57.936Z,3116
2019-02-04T07:28:58.204Z,3220
2019-02-04T07:29:58.135Z,3388
2019-02-04T07:30:58.112Z,3720
2019-02-04T07:31:58.092Z,3800
2019-02-04T07:32:58.235Z,3784
2019-02-04T07:33:58.638Z,3588
2019-02-04T07:34:58.039Z,3352
2019-02-04T07:35:58.028Z,3116
2019-02-04T07:36:58.021Z,3132
2019-02-04T07:37:58.100Z,3332
2019-02-04T07:38:57.751Z,3072
2019-02-04T07:39:57.965Z,2900
2019-02-04T07:40:57.953Z,2868
2019-02-04T07:41:58.736Z,2888
2019-02-04T07:42:57.924Z,2968
2019-02-04T07:43:57.921Z,2964
2019-02-04T07:44:57.910Z,2952
2019-02-04T07:45:57.881Z,2884
2019-02-04T07:46:57.857Z,2856
2019-02-04T07:47:57.842Z,2864
2019-02-04T07:48:57.817Z,2884
2019-02-04T07:49:58.491Z,2908
2019-02-04T07:50:57.794Z,2984
2019-02-04T07:51:57.785Z,3132
2019-02-04T07:52:57.761Z,3512
2019-02-04T07:53:57.747Z,3740
2019-02-04T07:54:57.737Z,3864
2019-02-04T07:55:57.730Z,3908
2019-02-04T07:56:57.871Z,3988
2019-02-04T07:58:00.369Z,4104
2019-02-04T07:58:57.672Z,4256
2019-02-04T07:59:57.654Z,4528
2019-02-04T08:00:57.644Z,4984
2019-02-04T08:01:57.608Z,5400
2019-02-04T08:02:57.609Z,5716
2019-02-04T08:03:57.640Z,5864
2019-02-04T08:04:57.955Z,5916
2019-02-04T08:05:57.562Z,6028
2019-02-04T08:06:57.541Z,6208
2019-02-04T08:07:57.526Z,6156
2019-02-04T08:08:57.528Z,5776
2019-02-04T08:09:57.506Z,5324
2019-02-04T08:10:57.484Z,5060
2019-02-04T08:11:57.456Z,4912
2019-02-04T08:13:08.132Z,4740
2019-02-04T08:13:57.424Z,4592
2019-02-04T08:14:57.414Z,4396
2019-02-04T08:15:57.423Z,4200
2019-02-04T08:16:57.470Z,4120
2019-02-04T08:17:57.385Z,3984
2019-02-04T08:18:57.353Z,3964
2019-02-04T08:19:57.330Z,3752
2019-02-04T08:20:58.074Z,3604
2019-02-04T08:21:57.305Z,3684
2019-02-04T08:22:57.378Z,4208
2019-02-04T08:23:57.272Z,4464
2019-02-04T08:24:57.271Z,4540
2019-02-04T08:25:57.267Z,4544
2019-02-04T08:26:57.224Z,4508
2019-02-04T08:27:57.230Z,4572
2019-02-04T08:28:57.813Z,4616
2019-02-04T08:29:57.172Z,4576
2019-02-04T08:30:57.162Z,4612
2019-02-04T08:31:57.152Z,4552
2019-02-04T08:32:57.143Z,4552
2019-02-04T08:33:57.451Z,4572
2019-02-04T08:34:57.178Z,4584
2019-02-04T08:35:57.470Z,4644
2019-02-04T08:36:57.456Z,4596
2019-02-04T08:37:57.075Z,4568
2019-02-04T08:38:56.815Z,4548
2019-02-04T08:39:57.028Z,4604
2019-02-04T08:40:57.023Z,4668
2019-02-04T08:41:56.767Z,4676
2019-02-04T08:42:56.982Z,4612
2019-02-04T08:43:58.614Z,4592
2019-02-04T08:44:56.960Z,4632
2019-02-04T08:45:56.941Z,4640
2019-02-04T08:46:56.925Z,4664
2019-02-04T08:48:56.897Z,4592
2019-02-04T08:50:06.817Z,4628
2019-02-04T08:50:56.993Z,4696
2019-02-04T08:51:56.954Z,4772
2019-02-04T08:52:56.845Z,4640
2019-02-04T08:53:56.818Z,4620
2019-02-04T08:54:56.802Z,4628
2019-02-04T08:55:56.789Z,4720
2019-02-04T08:56:56.772Z,4696
2019-02-04T08:57:56.771Z,4688
2019-02-04T08:58:57.364Z,4688
2019-02-04T08:59:56.752Z,4688
2019-02-04T09:00:56.727Z,4660
2019-02-04T09:01:56.706Z,4608
2019-02-04T09:02:56.677Z,4528
2019-02-04T09:03:56.426Z,4576
2019-02-04T09:04:56.655Z,4560
2019-02-04T09:05:56.729Z,4552
2019-02-04T09:06:57.001Z,4592
2019-02-04T09:07:56.593Z,4552
2019-02-04T09:08:56.586Z,4520
2019-02-04T09:09:56.585Z,4472
2019-02-04T09:10:56.557Z,4408
2019-02-04T09:11:56.536Z,4420
2019-02-04T09:12:56.512Z,4424
2019-02-04T09:13:56.882Z,4468
2019-02-04T09:14:56.488Z,4444
2019-02-04T09:15:56.474Z,4380
2019-02-04T09:16:56.458Z,4344
2019-02-04T09:17:56.452Z,4328
2019-02-04T09:18:56.440Z,4316
2019-02-04T09:19:56.420Z,4384
2019-02-04T09:20:56.450Z,4316
2019-02-04T09:21:56.887Z,4292
2019-02-04T09:22:56.380Z,4264
2019-02-04T09:23:56.350Z,4284
2019-02-04T09:24:56.336Z,4280
2019-02-04T09:25:56.308Z,4276
2019-02-04T09:26:56.370Z,4264
2019-02-04T09:27:56.309Z,4268
2019-02-04T09:28:56.771Z,4236
2019-02-04T09:29:56.259Z,4272
2019-02-04T09:30:56.239Z,4296
2019-02-04T09:31:56.221Z,4248
2019-02-04T09:32:56.207Z,4200
2019-02-04T09:33:56.201Z,4260
2019-02-04T09:34:56.246Z,4252
2019-02-04T09:35:56.175Z,4248
2019-02-04T09:36:57.152Z,4252
2019-02-04T09:37:56.146Z,4240
2019-02-04T09:38:55.890Z,4232
2019-02-04T09:39:56.116Z,4200
2019-02-04T09:40:56.087Z,4180
2019-02-04T09:41:56.062Z,4196
2019-02-04T09:42:56.157Z,4208
2019-02-04T09:43:56.266Z,4212
2019-02-04T09:44:56.322Z,4244
2019-02-04T09:45:56.024Z,4272
2019-02-04T09:46:56.015Z,4220
2019-02-04T09:47:56.003Z,4232
2019-02-04T09:48:55.958Z,4212
2019-02-04T09:49:55.955Z,4176
2019-02-04T09:50:55.948Z,4140
2019-02-04T09:51:56.492Z,4124
2019-02-04T09:52:55.907Z,4100
2019-02-04T09:53:55.727Z,4104
2019-02-04T09:54:55.883Z,4088
2019-02-04T09:55:57.039Z,4080
2019-02-04T09:56:55.852Z,4084
2019-02-04T09:57:55.960Z,4080
2019-02-04T09:58:55.806Z,4056
2019-02-04T09:59:57.093Z,4036
2019-02-04T10:00:55.800Z,4072
2019-02-04T10:01:55.775Z,4088
2019-02-04T10:02:55.753Z,4100
2019-02-04T10:03:55.729Z,4076
2019-02-04T10:04:55.729Z,4084
2019-02-04T10:05:55.698Z,4084
2019-02-04T10:06:57.850Z,4076
2019-02-04T10:07:56.773Z,4064
2019-02-04T10:08:55.668Z,4056
2019-02-04T10:09:55.654Z,4064
2019-02-04T10:10:55.626Z,4056
2019-02-04T10:11:55.613Z,4076
2019-02-04T10:12:57.416Z,4084
2019-02-04T10:13:55.583Z,4076
2019-02-04T10:14:55.650Z,4064
2019-02-04T10:15:56.241Z,4100
2019-02-04T10:16:55.645Z,4080
2019-02-04T10:17:55.678Z,4088
2019-02-04T10:18:55.550Z,4076
2019-02-04T10:19:55.654Z,4024
2019-02-04T10:20:55.662Z,4032
2019-02-04T10:21:56.501Z,4056
2019-02-04T10:22:55.588Z,4048
2019-02-04T10:23:56.147Z,4052
2019-02-04T10:24:55.561Z,4028
2019-02-04T10:25:55.506Z,4036
2019-02-04T10:26:55.480Z,3996
2019-02-04T10:27:55.442Z,3976
2019-02-04T10:28:55.466Z,3988
2019-02-04T10:29:55.424Z,3972
2019-02-04T10:30:55.585Z,3968
2019-02-04T10:31:55.880Z,3968
2019-02-04T10:32:55.390Z,3980
2019-02-04T10:33:55.347Z,3976
2019-02-04T10:34:55.382Z,3956
2019-02-04T10:35:55.456Z,3972
2019-02-04T10:36:55.515Z,3944
2019-02-04T10:37:55.309Z,3952
2019-02-04T10:38:55.529Z,3936
2019-02-04T10:39:55.624Z,3940
2019-02-04T10:40:55.064Z,3932
2019-02-04T10:41:55.260Z,3948
2019-02-04T10:42:55.267Z,3924
2019-02-04T10:43:55.257Z,3904
2019-02-04T10:44:55.220Z,3912
2019-02-04T10:45:55.220Z,3912
2019-02-04T10:46:55.854Z,3896
2019-02-04T10:47:55.387Z,3892
2019-02-04T10:48:55.269Z,3912
2019-02-04T10:49:55.184Z,3920
2019-02-04T10:50:55.274Z,3924
2019-02-04T10:51:55.168Z,3932
2019-02-04T10:52:55.099Z,3928
2019-02-04T10:53:55.108Z,3912
2019-02-04T10:54:55.816Z,3904
2019-02-04T10:55:55.066Z,3892
2019-02-04T10:56:55.163Z,3892
2019-02-04T10:57:55.087Z,3892
2019-02-04T10:58:55.088Z,3884
2019-02-04T10:59:54.989Z,3876
2019-02-04T11:00:55.154Z,3868
2019-02-04T11:01:55.203Z,3876
2019-02-04T11:02:55.705Z,3872
2019-02-04T11:03:54.953Z,3860
2019-02-04T11:04:54.935Z,3848
2019-02-04T11:05:54.668Z,3836
2019-02-04T11:06:54.901Z,3824
2019-02-04T11:07:54.872Z,3836
2019-02-04T11:08:54.898Z,3832
2019-02-04T11:09:55.302Z,3836
2019-02-04T11:10:54.824Z,3832
2019-02-04T11:11:54.818Z,3832
2019-02-04T11:12:54.854Z,3836
2019-02-04T11:13:54.806Z,3824
2019-02-04T11:14:54.813Z,3828
2019-02-04T11:15:54.993Z,3820
2019-02-04T11:16:54.762Z,3828
2019-02-04T11:17:55.500Z,3828
2019-02-04T11:18:54.958Z,3824
2019-02-04T11:19:54.747Z,3816
2019-02-04T11:21:05.556Z,3812
2019-02-04T11:21:54.897Z,3808
2019-02-04T11:22:54.654Z,3816
2019-02-04T11:23:54.724Z,3820
2019-02-04T11:24:54.538Z,3808
2019-02-04T11:25:55.069Z,3788
2019-02-04T11:26:54.633Z,3780
2019-02-04T11:27:54.668Z,3772
2019-02-04T11:28:54.637Z,3772
2019-02-04T11:29:54.541Z,3772
2019-02-04T11:30:54.546Z,3764
2019-02-04T11:31:54.338Z,3744
2019-02-04T11:32:54.610Z,3752
2019-02-04T11:33:55.024Z,3760
2019-02-04T11:34:56.472Z,3760
2019-02-04T11:35:54.600Z,3756
2019-02-04T11:36:54.545Z,3752
2019-02-04T11:37:54.486Z,3740
2019-02-04T11:38:54.516Z,3744
2019-02-04T11:39:54.612Z,3740
2019-02-04T11:40:54.441Z,3732
2019-02-04T11:41:55.017Z,3716
2019-02-04T11:42:54.402Z,3704
2019-02-04T11:43:54.420Z,3696
2019-02-04T11:44:54.352Z,3696
2019-02-04T11:45:57.412Z,3696
2019-02-04T11:46:54.454Z,3692
2019-02-04T11:47:54.352Z,3688
2019-02-04T11:48:54.286Z,3680
2019-02-04T11:49:54.911Z,3672
2019-02-04T11:50:54.215Z,3668
2019-02-04T11:51:54.199Z,3668
2019-02-04T11:52:54.215Z,3668
2019-02-04T11:53:54.168Z,3664
2019-02-04T11:54:54.156Z,3660
2019-02-04T11:55:54.142Z,3660
2019-02-04T11:56:54.439Z,3660
2019-02-04T11:57:54.402Z,3660
2019-02-04T11:58:54.105Z,3668
2019-02-04T11:59:54.086Z,3672
2019-02-04T12:00:54.089Z,3660
2019-02-04T12:01:54.081Z,3660
2019-02-04T12:02:54.055Z,3648
2019-02-04T12:03:54.048Z,3640
2019-02-04T12:04:54.598Z,3636
2019-02-04T12:05:54.007Z,3632
2019-02-04T12:06:53.984Z,3632
2019-02-04T12:07:53.998Z,3628
2019-02-04T12:08:53.959Z,3624
2019-02-04T12:09:53.955Z,3628
2019-02-04T12:10:53.953Z,3624
2019-02-04T12:11:55.684Z,3628
2019-02-04T12:12:54.887Z,3620
2019-02-04T12:13:53.902Z,3620
2019-02-04T12:14:53.892Z,3612
2019-02-04T12:15:53.869Z,3596
2019-02-04T12:16:53.850Z,3596
2019-02-04T12:17:53.845Z,3588
2019-02-04T12:18:53.830Z,3592
2019-02-04T12:19:53.968Z,3588
2019-02-04T12:20:54.448Z,3596
2019-02-04T12:21:53.798Z,3600
2019-02-04T12:22:53.803Z,3588
2019-02-04T12:23:53.770Z,3588
2019-02-04T12:24:53.764Z,3608
2019-02-04T12:25:53.734Z,3616
2019-02-04T12:26:53.723Z,3616
2019-02-04T12:27:54.028Z,3604
2019-02-04T12:28:54.052Z,3596
2019-02-04T12:29:53.690Z,3576
2019-02-04T12:30:53.675Z,3560
2019-02-04T12:31:53.661Z,3576
2019-02-04T12:32:53.640Z,3592
2019-02-04T12:33:53.642Z,3584
2019-02-04T12:34:53.622Z,3568
2019-02-04T12:35:54.131Z,3548
2019-02-04T12:36:53.786Z,3544
2019-02-04T12:37:53.580Z,3560
2019-02-04T12:38:53.572Z,3692
2019-02-04T12:39:53.561Z,3724
2019-02-04T12:40:53.544Z,3644
2019-02-04T12:41:55.581Z,3608
2019-02-04T12:42:53.636Z,3584
2019-02-04T12:43:53.906Z,3648
2019-02-04T12:44:53.491Z,3600
2019-02-04T12:45:53.484Z,3592
2019-02-04T12:46:53.462Z,3628
2019-02-04T12:47:53.447Z,3692
2019-02-04T12:48:53.431Z,3888
2019-02-04T12:49:53.506Z,3976
2019-02-04T12:50:53.592Z,4044
2019-02-04T12:51:53.630Z,3948
2019-02-04T12:52:53.368Z,3940
2019-02-04T12:53:53.370Z,4148
2019-02-04T12:54:53.367Z,5504
2019-02-04T12:55:53.349Z,4724
2019-02-04T12:56:53.346Z,4544
2019-02-04T12:57:53.345Z,5428
2019-02-04T12:59:02.788Z,4500
2019-02-04T12:59:53.528Z,4168
2019-02-04T13:00:53.269Z,4612
2019-02-04T13:01:53.268Z,4352
2019-02-04T13:02:53.252Z,4396
2019-02-04T13:03:53.250Z,4124
2019-02-04T13:04:53.226Z,3776
2019-02-04T13:05:53.202Z,3632
2019-02-04T13:06:54.401Z,3552
2019-02-04T13:07:53.479Z,3520
2019-02-04T13:08:53.168Z,3516
2019-02-04T13:09:53.161Z,3564
2019-02-04T13:10:53.153Z,3556
2019-02-04T13:11:53.256Z,3500
2019-02-04T13:12:53.116Z,3472
2019-02-04T13:13:53.115Z,3468
2019-02-04T13:14:53.549Z,3452
2019-02-04T13:15:53.083Z,3452
2019-02-04T13:16:53.060Z,3444
2019-02-04T13:17:53.067Z,3424
2019-02-04T13:18:53.034Z,3424
2019-02-04T13:19:53.018Z,3420
2019-02-04T13:20:53.136Z,3408
2019-02-04T13:21:53.000Z,3412
2019-02-04T13:22:56.559Z,3448
2019-02-04T13:23:52.988Z,3488
2019-02-04T13:24:52.725Z,3452
2019-02-04T13:25:52.950Z,3440
2019-02-04T13:26:52.936Z,3404
2019-02-04T13:27:52.918Z,3372
2019-02-04T13:28:52.904Z,3356
2019-02-04T13:29:52.906Z,3348
2019-02-04T13:30:53.654Z,3312
2019-02-04T13:31:52.872Z,3316
2019-02-04T13:32:52.857Z,3316
2019-02-04T13:33:52.835Z,3320
2019-02-04T13:34:52.829Z,3320
2019-02-04T13:35:52.919Z,3332
2019-02-04T13:36:52.807Z,3344
2019-02-04T13:37:53.023Z,3360
2019-02-04T13:38:53.085Z,3368
2019-02-04T13:39:52.759Z,3380
2019-02-04T13:40:52.779Z,3384
2019-02-04T13:41:52.874Z,3392
2019-02-04T13:42:52.729Z,3396
2019-02-04T13:43:52.717Z,3400
2019-02-04T13:44:52.706Z,3400
2019-02-04T13:45:52.948Z,3400
2019-02-04T13:46:52.941Z,3400
2019-02-04T13:47:52.655Z,3404
2019-02-04T13:48:52.649Z,3404
2019-02-04T13:49:52.634Z,3416
2019-02-04T13:50:52.403Z,3416
2019-02-04T13:52:04.171Z,3416
2019-02-04T13:52:52.601Z,3416
2019-02-04T13:53:52.884Z,3412
2019-02-04T13:54:52.796Z,3404
2019-02-04T13:55:52.675Z,3396
2019-02-04T13:56:52.551Z,3388
2019-02-04T13:57:52.535Z,3384
2019-02-04T13:58:52.511Z,3376